Terminal Aerodrome Forecast
Issued by NWS

Home | Current Version | Previous Version | Text Only | Print | Product List | Glossary On
Versions: 1 2 3 4 5 6 7 8 9 10 11 12 13 14 15
000
FTUS45 KABQ 221124
TAFFMN
TAF
KFMN 221124Z 2212/2312 09009KT P6SM SCT200
     FM221400 12014KT P6SM SCT025 BKN200
     FM222000 19015G22KT P6SM BKN150
     FM230100 28006KT P6SM SCT150
     FM230500 06006KT P6SM SCT130=

USA.gov is the U.S. government's official web portal to all federal, state and local government web resources and services.